createdAt,value
2022-08-20T00:00:55.147Z,100674.69
2022-08-20T00:03:35.972Z,100682.88
2022-08-20T00:06:19.048Z,100674.47
2022-08-20T00:08:47.307Z,100673.81
2022-08-20T00:11:24.386Z,100672.75
2022-08-20T00:13:58.108Z,100671.47
2022-08-20T00:16:32.573Z,100670.16
2022-08-20T00:19:06.197Z,100664.06
2022-08-20T00:21:34.102Z,100656.75
2022-08-20T00:24:02.005Z,100653.19
2022-08-20T00:26:28.844Z,100651.66
2022-08-20T00:28:55.817Z,100645.38
2022-08-20T00:31:24.546Z,100647.09
2022-08-20T00:33:52.488Z,100649.34
2022-08-20T00:36:20.007Z,100645.38
2022-08-20T00:38:47.769Z,100649.13
2022-08-20T00:41:23.044Z,100646.81
2022-08-20T00:44:07.560Z,100644.47
2022-08-20T00:46:35.344Z,100647.00
2022-08-20T00:49:04.024Z,100639.84
2022-08-20T00:51:43.991Z,100641.09
2022-08-20T00:54:24.124Z,100643.63
2022-08-20T00:57:09.177Z,100639.19
2022-08-20T00:59:40.223Z,100639.41
2022-08-20T01:02:14.458Z,100633.28
2022-08-20T01:04:46.905Z,100632.47
2022-08-20T01:07:13.942Z,100628.91
2022-08-20T01:09:58.331Z,100628.91
2022-08-20T01:12:29.076Z,100628.06
2022-08-20T01:14:59.455Z,100630.97
2022-08-20T01:17:30.014Z,100627.19
2022-08-20T01:20:09.156Z,100627.59
2022-08-20T01:23:14.866Z,100629.47
2022-08-20T01:25:56.456Z,100626.75
2022-08-20T01:28:44.598Z,100627.97
2022-08-20T01:31:20.163Z,100629.69
2022-08-20T01:33:49.173Z,100619.81
2022-08-20T01:36:20.089Z,100630.69
2022-08-20T01:38:54.255Z,100632.97
2022-08-20T01:41:53.665Z,100626.03
2022-08-20T01:44:21.924Z,100628.75
2022-08-20T01:46:57.699Z,100627.91
2022-08-20T01:49:30.452Z,100625.38
2022-08-20T01:52:02.143Z,100618.06
2022-08-20T01:54:29.118Z,100619.94
2022-08-20T01:57:01.932Z,100623.69
2022-08-20T01:59:30.209Z,100619.75
2022-08-20T02:02:00.722Z,100625.75
2022-08-20T02:04:27.641Z,100624.91
2022-08-20T02:06:59.416Z,100613.19
2022-08-20T02:09:30.502Z,100616.56
2022-08-20T02:11:58.837Z,100611.13
2022-08-20T02:14:27.453Z,100608.13
2022-08-20T02:16:55.617Z,100608.97
2022-08-20T02:19:48.531Z,100602.78
2022-08-20T02:22:24.804Z,100593.03
2022-08-20T02:24:51.889Z,100592.38
2022-08-20T02:27:19.525Z,100603.44
2022-08-20T02:29:46.960Z,100600.06
2022-08-20T02:32:31.178Z,100605.69
2022-08-20T02:35:03.827Z,100602.13
2022-08-20T02:37:31.670Z,100600.78
2022-08-20T02:39:59.246Z,100598.94
2022-08-20T02:42:26.700Z,100583.63
2022-08-20T02:44:54.649Z,100591.97
2022-08-20T02:47:21.513Z,100591.97
2022-08-20T02:49:48.368Z,100593.03
2022-08-20T02:52:15.521Z,100590.50
2022-08-20T02:54:42.360Z,100589.66
2022-08-20T02:57:14.281Z,100589.00
2022-08-20T02:59:41.126Z,100581.88
2022-08-20T03:02:07.907Z,100581.88
2022-08-20T03:04:34.765Z,100578.50
2022-08-20T03:07:01.621Z,100580.19
2022-08-20T03:09:28.848Z,100582.06
2022-08-20T03:11:55.754Z,100576.59
2022-08-20T03:14:23.056Z,100580.19
2022-08-20T03:16:50.508Z,100576.06
2022-08-20T03:19:17.376Z,100588.25
2022-08-20T03:21:44.196Z,100576.28
2022-08-20T03:24:11.034Z,100575.75
2022-08-20T03:26:37.906Z,100582.31
2022-08-20T03:29:05.255Z,100574.44
2022-08-20T03:31:32.089Z,100573.47
2022-08-20T03:33:58.936Z,100573.91
2022-08-20T03:36:29.258Z,100572.09
2022-08-20T03:39:03.963Z,100562.47
2022-08-20T03:41:32.331Z,100567.34
2022-08-20T03:43:59.503Z,100569.47
2022-08-20T03:46:26.816Z,100560.94
2022-08-20T03:48:59.501Z,100567.22
2022-08-20T03:51:30.317Z,100554.69
2022-08-20T03:53:57.814Z,100555.78
2022-08-20T03:56:25.808Z,100554.13
2022-08-20T03:58:53.148Z,100557.31
2022-08-20T04:01:45.646Z,100557.94
2022-08-20T04:04:12.669Z,100552.94
2022-08-20T04:06:40.519Z,100559.03
2022-08-20T04:09:09.469Z,100555.00
2022-08-20T04:11:39.464Z,100545.97
2022-08-20T04:14:06.258Z,100543.91
2022-08-20T04:16:34.488Z,100542.03
2022-08-20T04:19:03.683Z,100544.34
2022-08-20T04:21:32.945Z,100542.03
2022-08-20T04:24:02.576Z,100540.78
2022-08-20T04:26:30.230Z,100545.78
2022-08-20T04:28:57.375Z,100542.44
2022-08-20T04:31:33.440Z,100537.59
2022-08-20T04:34:08.104Z,100539.22
2022-08-20T04:36:35.683Z,100538.75
2022-08-20T04:39:03.052Z,100535.50
2022-08-20T04:41:30.150Z,100538.41
2022-08-20T04:43:58.234Z,100547.56
2022-08-20T04:46:28.897Z,100555.56
2022-08-20T04:48:57.265Z,100560.53
2022-08-20T04:51:25.062Z,100554.63
2022-08-20T04:53:56.504Z,100555.88
2022-08-20T04:56:27.361Z,100560.69
2022-08-20T04:58:57.377Z,100555.44
2022-08-20T05:01:24.551Z,100560.41
2022-08-20T05:03:55.204Z,100563.13
2022-08-20T05:06:26.491Z,100571.50
2022-08-20T05:08:56.017Z,100567.28
2022-08-20T05:11:33.692Z,100571.72
2022-08-20T05:14:08.959Z,100572.72
2022-08-20T05:16:39.331Z,100575.44
2022-08-20T05:19:09.753Z,100580.53
2022-08-20T05:21:37.660Z,100582.19
2022-08-20T05:24:06.459Z,100581.81
2022-08-20T05:26:34.039Z,100583.50
2022-08-20T05:29:00.860Z,100596.06
2022-08-20T05:31:30.931Z,100588.75
2022-08-20T05:34:12.645Z,100594.47
2022-08-20T05:36:44.188Z,100598.75
2022-08-20T05:39:13.702Z,100585.81
2022-08-20T05:41:40.983Z,100592.44
2022-08-20T05:44:11.167Z,100595.28
2022-08-20T05:46:43.114Z,100591.25
2022-08-20T05:49:14.169Z,100590.88
2022-08-20T05:51:41.083Z,100599.38
2022-08-20T05:54:08.183Z,100596.13
2022-08-20T05:56:36.152Z,100587.81
2022-08-20T05:59:06.829Z,100582.81
2022-08-20T06:01:38.149Z,100590.47
2022-08-20T06:04:24.081Z,100587.97
2022-08-20T06:06:54.992Z,100593.06
2022-08-20T06:09:31.099Z,100601.47
2022-08-20T06:12:04.589Z,100589.97
2022-08-20T06:14:32.916Z,100589.56
2022-08-20T06:17:15.403Z,100591.91
2022-08-20T06:19:44.875Z,100584.34
2022-08-20T06:22:19.839Z,100590.44
2022-08-20T06:24:53.834Z,100582.69
2022-08-20T06:27:21.123Z,100584.13
2022-08-20T06:29:49.531Z,100577.66
2022-08-20T06:32:17.388Z,100586.69
2022-08-20T06:34:49.957Z,100591.34
2022-08-20T06:37:30.003Z,100579.97
2022-08-20T06:40:08.232Z,100575.38
2022-08-20T06:42:35.579Z,100563.88
2022-08-20T06:45:06.033Z,100582.41
2022-08-20T06:47:34.303Z,100572.03
2022-08-20T06:50:01.235Z,100576.38
2022-08-20T06:52:52.517Z,100561.59
2022-08-20T06:55:17.650Z,100554.28
2022-08-20T06:57:44.633Z,100550.50
2022-08-20T07:00:17.206Z,100558.34
2022-08-20T07:02:44.199Z,100557.41
2022-08-20T07:05:11.131Z,100549.72
2022-08-20T07:07:38.145Z,100553.06
2022-08-20T07:10:09.653Z,100562.00
2022-08-20T07:12:36.758Z,100559.56
2022-08-20T07:15:07.753Z,100561.72
2022-08-20T07:17:35.599Z,100569.59
2022-08-20T07:20:12.040Z,100562.69
2022-08-20T07:22:39.057Z,100560.03
2022-08-20T07:25:09.200Z,100562.50
2022-08-20T07:27:36.295Z,100562.06
2022-08-20T07:30:24.850Z,100567.28
2022-08-20T07:32:52.089Z,100572.72
2022-08-20T07:35:20.712Z,100578.22
2022-08-20T07:37:50.707Z,100580.91
2022-08-20T07:40:26.319Z,100588.47
2022-08-20T07:42:58.768Z,100589.91
2022-08-20T07:45:25.836Z,100591.69
2022-08-20T07:47:53.848Z,100592.28
2022-08-20T07:50:25.913Z,100590.88
2022-08-20T07:52:53.381Z,100586.06
2022-08-20T07:55:22.084Z,100590.56
2022-08-20T07:57:50.685Z,100589.28
2022-08-20T08:00:21.512Z,100583.13
2022-08-20T08:02:48.623Z,100594.88
2022-08-20T08:05:16.333Z,100606.34
2022-08-20T08:07:43.473Z,100596.88
2022-08-20T08:10:18.483Z,100602.81
2022-08-20T08:12:51.417Z,100597.25
2022-08-20T08:17:52.864Z,100594.41
2022-08-20T08:20:22.739Z,100589.84
2022-08-20T08:22:50.808Z,100583.38
2022-08-20T08:25:17.855Z,100594.06
2022-08-20T08:27:47.798Z,100595.97
2022-08-20T08:30:16.732Z,100588.81
2022-08-20T08:33:02.253Z,100585.31
2022-08-20T08:35:32.725Z,100589.88
2022-08-20T08:38:02.040Z,100593.44
2022-08-20T08:40:32.109Z,100589.50
2022-08-20T08:43:04.251Z,100577.16
2022-08-20T08:45:45.987Z,100581.81
2022-08-20T08:48:18.576Z,100586.50
2022-08-20T08:50:53.878Z,100586.66
2022-08-20T08:53:27.304Z,100584.97
2022-08-20T08:55:54.924Z,100580.06
2022-08-20T08:58:21.888Z,100574.75
2022-08-20T09:00:56.426Z,100574.72
2022-08-20T09:03:36.960Z,100578.91
2022-08-20T09:06:04.792Z,100571.75
2022-08-20T09:08:57.594Z,100576.06
2022-08-20T09:11:25.882Z,100566.00
2022-08-20T09:13:56.301Z,100571.53
2022-08-20T09:16:25.453Z,100562.22
2022-08-20T09:18:55.248Z,100574.66
2022-08-20T09:21:22.091Z,100577.16
2022-08-20T09:23:49.123Z,100580.16
2022-08-20T09:26:15.962Z,100580.16
2022-08-20T09:28:43.009Z,100584.69
2022-08-20T09:31:10.137Z,100581.84
2022-08-20T09:33:36.973Z,100581.25
2022-08-20T09:36:04.313Z,100573.94
2022-08-20T09:38:51.144Z,100577.53
2022-08-20T09:41:17.981Z,100576.19
2022-08-20T09:43:44.842Z,100566.28
2022-08-20T09:46:11.925Z,100574.41
2022-08-20T09:48:39.279Z,100568.66
2022-08-20T09:51:06.432Z,100563.63
2022-08-20T09:53:33.303Z,100564.94
2022-08-20T09:56:00.740Z,100555.63
2022-08-20T09:58:49.937Z,100549.50
2022-08-20T10:01:20.281Z,100557.03
2022-08-20T10:03:49.531Z,100551.78
2022-08-20T10:06:19.982Z,100545.53
2022-08-20T10:08:48.297Z,100549.25
2022-08-20T10:11:16.021Z,100550.69
2022-08-20T10:13:45.393Z,100549.00
2022-08-20T10:16:12.416Z,100549.59
2022-08-20T10:18:39.258Z,100544.44
2022-08-20T10:21:11.294Z,100552.34
2022-08-20T10:23:38.241Z,100543.97
2022-08-20T10:26:05.303Z,100535.34
2022-08-20T10:28:32.540Z,100538.22
2022-08-20T10:30:59.438Z,100543.22
2022-08-20T10:33:26.328Z,100538.41
2022-08-20T10:35:59.663Z,100548.44
2022-08-20T10:38:26.929Z,100543.81
2022-08-20T10:40:53.805Z,100543.03
2022-08-20T10:43:20.595Z,100524.44
2022-08-20T10:45:47.420Z,100539.59
2022-08-20T10:48:18.226Z,100526.88
2022-08-20T10:50:48.071Z,100537.31
2022-08-20T10:53:14.907Z,100538.00
2022-08-20T10:55:41.815Z,100536.22
2022-08-20T10:58:11.371Z,100546.63
2022-08-20T11:00:40.816Z,100532.16
2022-08-20T11:03:08.096Z,100535.38
2022-08-20T11:05:35.088Z,100525.44
2022-08-20T11:08:04.907Z,100516.19
2022-08-20T11:10:35.371Z,100521.88
2022-08-20T11:13:04.804Z,100530.25
2022-08-20T11:15:34.592Z,100534.78
2022-08-20T11:18:01.580Z,100526.91
2022-08-20T11:20:28.894Z,100534.19
2022-08-20T11:22:56.136Z,100529.41
2022-08-20T11:25:25.150Z,100525.41
2022-08-20T11:27:53.788Z,100528.09
2022-08-20T11:30:26.084Z,100523.75
2022-08-20T11:32:53.139Z,100528.78
2022-08-20T11:35:43.479Z,100529.97
2022-08-20T11:38:11.086Z,100527.19
2022-08-20T11:40:37.946Z,100535.81
2022-08-20T11:43:20.282Z,100533.00
2022-08-20T11:45:52.144Z,100530.66
2022-08-20T11:48:19.204Z,100531.63
2022-08-20T11:50:47.748Z,100531.34
2022-08-20T11:53:15.088Z,100527.56
2022-08-20T11:55:43.151Z,100524.91
2022-08-20T11:58:10.653Z,100518.19
2022-08-20T12:00:37.643Z,100527.06
2022-08-20T12:03:09.368Z,100512.84
2022-08-20T12:05:38.544Z,100513.25
2022-08-20T12:08:06.588Z,100511.94
2022-08-20T12:10:33.989Z,100507.81
2022-08-20T12:13:02.667Z,100508.97
2022-08-20T12:15:36.223Z,100515.66
2022-08-20T12:18:08.178Z,100517.50
2022-08-20T12:20:36.637Z,100529.16
2022-08-20T12:23:04.405Z,100518.03
2022-08-20T12:25:31.227Z,100523.72
2022-08-20T12:28:00.031Z,100511.97
2022-08-20T12:30:27.027Z,100512.66
2022-08-20T12:32:53.954Z,100523.56
2022-08-20T12:35:21.192Z,100512.84
2022-08-20T12:37:50.028Z,100510.66
2022-08-20T12:40:32.165Z,100511.31
2022-08-20T12:43:01.568Z,100500.41
2022-08-20T12:45:29.504Z,100501.56
2022-08-20T12:48:05.048Z,100495.97
2022-08-20T12:50:32.796Z,100492.00
2022-08-20T12:53:01.372Z,100484.22
2022-08-20T12:55:28.996Z,100487.72
2022-08-20T12:58:01.612Z,100492.31
2022-08-20T13:00:39.471Z,100482.63
2022-08-20T13:03:13.088Z,100484.84
2022-08-20T13:05:41.103Z,100490.84
2022-08-20T13:08:10.927Z,100485.50
2022-08-20T13:10:45.657Z,100477.69
2022-08-20T13:13:17.592Z,100481.19
2022-08-20T13:15:47.136Z,100491.72
2022-08-20T13:18:13.956Z,100489.59
2022-08-20T13:20:41.013Z,100494.34
2022-08-20T13:23:07.868Z,100493.72
2022-08-20T13:25:35.091Z,100500.06
2022-08-20T13:28:04.702Z,100494.25
2022-08-20T13:30:36.890Z,100488.44
2022-08-20T13:33:03.806Z,100488.00
2022-08-20T13:35:31.410Z,100489.91
2022-08-20T13:37:58.342Z,100490.31
2022-08-20T13:40:26.122Z,100485.63
2022-08-20T13:42:52.996Z,100485.63
2022-08-20T13:45:19.984Z,100487.19
2022-08-20T13:47:47.306Z,100477.22
2022-08-20T13:50:19.415Z,100486.78
2022-08-20T13:52:46.765Z,100489.00
2022-08-20T13:55:18.751Z,100471.53
2022-08-20T13:57:46.669Z,100473.78
2022-08-20T14:00:30.801Z,100475.81
2022-08-20T14:03:03.642Z,100478.22
2022-08-20T14:05:31.496Z,100479.31
2022-08-20T14:08:21.453Z,100469.78
2022-08-20T14:10:51.600Z,100470.94
2022-08-20T14:13:23.115Z,100465.41
2022-08-20T14:15:50.354Z,100472.16
2022-08-20T14:18:17.414Z,100464.97
2022-08-20T14:20:45.489Z,100457.75
2022-08-20T14:23:13.974Z,100458.88
2022-08-20T14:25:40.949Z,100456.44
2022-08-20T14:28:18.205Z,100457.53
2022-08-20T14:30:47.319Z,100456.56
2022-08-20T14:33:19.813Z,100448.69
2022-08-20T14:35:46.709Z,100448.47
2022-08-20T14:38:13.930Z,100446.59
2022-08-20T14:40:41.093Z,100444.13
2022-08-20T14:43:07.972Z,100445.50
2022-08-20T14:45:34.842Z,100443.91
2022-08-20T14:48:02.060Z,100440.41
2022-08-20T14:50:32.683Z,100448.53
2022-08-20T14:53:00.997Z,100445.47
2022-08-20T14:55:32.440Z,100440.53
2022-08-20T14:57:59.805Z,100442.19
2022-08-20T15:00:29.990Z,100442.25
2022-08-20T15:02:57.630Z,100445.09
2022-08-20T15:05:24.910Z,100445.84
2022-08-20T15:07:53.909Z,100444.75
2022-08-20T15:10:29.162Z,100441.69
2022-08-20T15:12:57.151Z,100441.00
2022-08-20T15:15:25.277Z,100444.34
2022-08-20T15:18:00.538Z,100433.78
2022-08-20T15:20:32.231Z,100432.06
2022-08-20T15:22:59.769Z,100423.81
2022-08-20T15:25:36.429Z,100414.56
2022-08-20T15:28:09.052Z,100434.63
2022-08-20T15:30:38.443Z,100422.47
2022-08-20T15:33:05.483Z,100429.06
2022-08-20T15:35:32.912Z,100417.34
2022-08-20T15:38:01.096Z,100418.13
2022-08-20T15:40:31.923Z,100418.56
2022-08-20T15:43:01.861Z,100423.47
2022-08-20T15:45:29.332Z,100412.66
2022-08-20T15:48:17.993Z,100411.03
2022-08-20T15:50:53.625Z,100413.53
2022-08-20T15:53:26.772Z,100417.13
2022-08-20T15:56:13.113Z,100412.44
2022-08-20T15:59:05.539Z,100407.38
2022-08-20T16:02:10.052Z,100421.47
2022-08-20T16:05:09.538Z,100421.47
2022-08-20T16:08:13.984Z,100421.88
2022-08-20T16:11:04.085Z,100421.25
2022-08-20T16:13:45.320Z,100416.44
2022-08-20T16:16:22.759Z,100415.28
2022-08-20T16:18:53.212Z,100414.66
2022-08-20T16:21:30.985Z,100409.34
2022-08-20T16:23:58.109Z,100407.38
2022-08-20T16:26:43.760Z,100409.66
2022-08-20T16:29:37.942Z,100404.88
2022-08-20T16:32:25.756Z,100404.56
2022-08-20T16:35:04.319Z,100400.13
2022-08-20T16:38:08.227Z,100408.34
2022-08-20T16:41:00.986Z,100407.72
2022-08-20T16:43:35.178Z,100401.53
2022-08-20T16:46:17.845Z,100412.09
2022-08-20T16:48:58.261Z,100412.44
2022-08-20T16:51:50.950Z,100412.34
2022-08-20T16:54:28.395Z,100416.13
2022-08-20T16:57:04.299Z,100423.16
2022-08-20T16:59:32.305Z,100417.06
2022-08-20T17:02:04.274Z,100418.13
2022-08-20T17:04:34.589Z,100426.50
2022-08-20T17:07:05.517Z,100426.16
2022-08-20T17:09:44.008Z,100423.41
2022-08-20T17:12:25.600Z,100414.63
2022-08-20T17:14:58.171Z,100430.59
2022-08-20T17:17:33.664Z,100425.59
2022-08-20T17:20:19.853Z,100431.09
2022-08-20T17:23:08.681Z,100423.63
2022-08-20T17:25:40.367Z,100426.97
2022-08-20T17:28:19.817Z,100420.34
2022-08-20T17:30:48.111Z,100425.94
2022-08-20T17:33:37.292Z,100433.66
2022-08-20T17:36:26.395Z,100426.97
2022-08-20T17:38:58.901Z,100428.63
2022-08-20T17:41:36.254Z,100424.47
2022-08-20T17:44:08.000Z,100435.09
2022-08-20T17:46:43.383Z,100419.78
2022-08-20T17:49:15.721Z,100423.56
2022-08-20T17:51:50.083Z,100421.47
2022-08-20T17:54:27.501Z,100421.47
2022-08-20T17:57:00.723Z,100422.78
2022-08-20T17:59:59.835Z,100424.63
2022-08-20T18:02:21.316Z,100427.56
2022-08-20T18:04:50.956Z,100425.75
2022-08-20T18:07:36.211Z,100432.53
2022-08-20T18:10:13.301Z,100434.16
2022-08-20T18:12:46.289Z,100439.75
2022-08-20T18:15:23.625Z,100429.72
2022-08-20T18:18:26.277Z,100433.13
2022-08-20T18:21:43.648Z,100432.56
2022-08-20T18:24:24.518Z,100424.97
2022-08-20T18:27:02.257Z,100420.69
2022-08-20T18:29:37.307Z,100425.56
2022-08-20T18:32:10.217Z,100423.47
2022-08-20T18:34:41.495Z,100427.44
2022-08-20T18:37:31.248Z,100427.50
2022-08-20T18:40:14.945Z,100425.50
2022-08-20T18:42:42.341Z,100431.69
2022-08-20T18:45:12.434Z,100428.81
2022-08-20T18:47:45.254Z,100431.22
2022-08-20T18:50:32.476Z,100425.28
2022-08-20T18:53:11.649Z,100425.06
2022-08-20T18:55:43.838Z,100437.97
2022-08-20T18:58:15.801Z,100431.06
2022-08-20T19:00:49.758Z,100430.81
2022-08-20T19:03:23.813Z,100432.38
2022-08-20T19:05:50.585Z,100430.13
2022-08-20T19:08:21.764Z,100437.44
2022-08-20T19:11:13.831Z,100436.47
2022-08-20T19:14:05.423Z,100437.78
2022-08-20T19:16:42.437Z,100438.38
2022-08-20T19:19:35.914Z,100451.91
2022-08-20T19:22:04.417Z,100450.66
2022-08-20T19:24:35.732Z,100443.22
2022-08-20T19:27:08.516Z,100442.53
2022-08-20T19:29:49.369Z,100439.66
2022-08-20T19:32:27.945Z,100438.78
2022-08-20T19:35:02.091Z,100439.25
2022-08-20T19:37:50.882Z,100437.94
2022-08-20T19:40:29.989Z,100442.69
2022-08-20T19:43:00.088Z,100452.31
2022-08-20T19:45:38.088Z,100451.50
2022-08-20T19:48:35.388Z,100449.91
2022-08-20T19:51:33.724Z,100444.28
2022-08-20T19:54:00.921Z,100453.44
2022-08-20T19:56:28.612Z,100457.50
2022-08-20T19:59:09.719Z,100463.88
2022-08-20T20:01:37.404Z,100451.69
2022-08-20T20:04:14.402Z,100457.66
2022-08-20T20:06:47.044Z,100458.09
2022-08-20T20:09:25.479Z,100462.38
2022-08-20T20:11:58.509Z,100460.25
2022-08-20T20:14:31.728Z,100460.63
2022-08-20T20:16:59.217Z,100453.81
2022-08-20T20:19:28.017Z,100450.03
2022-08-20T20:22:24.315Z,100454.22
2022-08-20T20:25:22.793Z,100462.78
2022-08-20T20:27:54.447Z,100458.38
2022-08-20T20:30:34.189Z,100458.00
2022-08-20T20:33:13.396Z,100458.38
2022-08-20T20:35:40.232Z,100454.59
2022-08-20T20:38:11.931Z,100454.59
2022-08-20T20:41:03.810Z,100458.00
2022-08-20T20:43:35.711Z,100460.31
2022-08-20T20:46:28.888Z,100454.84
2022-08-20T20:49:01.788Z,100455.13
2022-08-20T20:51:33.571Z,100455.59
2022-08-20T20:54:06.783Z,100463.38
2022-08-20T20:56:43.492Z,100467.78
2022-08-20T20:59:11.002Z,100463.00
2022-08-20T21:01:50.043Z,100469.16
2022-08-20T21:04:23.272Z,100474.75
2022-08-20T21:06:53.344Z,100474.81
2022-08-20T21:09:22.256Z,100473.22
2022-08-20T21:11:49.896Z,100475.66
2022-08-20T21:14:18.143Z,100482.91
2022-08-20T21:16:45.482Z,100489.06
2022-08-20T21:19:13.499Z,100479.44
2022-08-20T21:21:41.304Z,100487.13
2022-08-20T21:24:08.861Z,100485.31
2022-08-20T21:26:37.202Z,100483.91
2022-08-20T21:29:07.471Z,100479.75
2022-08-20T21:31:43.446Z,100483.38
2022-08-20T21:34:12.652Z,100482.41
2022-08-20T21:36:39.880Z,100477.00
2022-08-20T21:39:06.925Z,100479.56
2022-08-20T21:41:34.947Z,100477.94
2022-08-20T21:44:12.920Z,100485.78
2022-08-20T21:46:39.696Z,100492.16
2022-08-20T21:49:06.559Z,100486.28
2022-08-20T21:51:33.429Z,100486.16
2022-08-20T21:54:00.242Z,100495.41
2022-08-20T21:56:27.513Z,100493.13
2022-08-20T21:59:00.357Z,100491.88
2022-08-20T22:01:27.879Z,100486.22
2022-08-20T22:03:55.312Z,100485.81
2022-08-20T22:06:22.142Z,100494.47
2022-08-20T22:08:48.945Z,100488.56
2022-08-20T22:11:16.675Z,100485.44
2022-08-20T22:13:44.612Z,100477.84
2022-08-20T22:16:15.923Z,100478.28
2022-08-20T22:18:43.447Z,100469.91
2022-08-20T22:21:19.952Z,100471.41
2022-08-20T22:23:47.779Z,100473.47
2022-08-20T22:26:15.752Z,100471.19
2022-08-20T22:28:43.587Z,100469.50
2022-08-20T22:31:11.713Z,100470.38
2022-08-20T22:33:39.703Z,100467.03
2022-08-20T22:36:07.348Z,100460.94
2022-08-20T22:38:34.524Z,100469.56
2022-08-20T22:41:02.188Z,100470.44
2022-08-20T22:43:31.083Z,100472.94
2022-08-20T22:46:00.809Z,100468.09
2022-08-20T22:48:29.392Z,100467.53
2022-08-20T22:50:58.429Z,100479.28
2022-08-20T22:53:27.227Z,100473.00
2022-08-20T22:55:54.728Z,100474.28
2022-08-20T22:58:30.968Z,100471.75
2022-08-20T23:01:00.167Z,100470.09
2022-08-20T23:03:39.841Z,100473.22
2022-08-20T23:06:09.515Z,100467.13
2022-08-20T23:08:38.134Z,100469.25
2022-08-20T23:11:05.456Z,100465.44
2022-08-20T23:13:32.337Z,100458.94
2022-08-20T23:15:59.317Z,100463.78
2022-08-20T23:18:26.422Z,100464.41
2022-08-20T23:20:56.483Z,100474.72
2022-08-20T23:23:26.425Z,100468.38
2022-08-20T23:25:54.519Z,100471.97
2022-08-20T23:28:24.679Z,100469.25
2022-08-20T23:30:52.283Z,100471.78
2022-08-20T23:33:19.715Z,100467.38
2022-08-20T23:35:47.695Z,100460.44
2022-08-20T23:38:15.563Z,100455.41
2022-08-20T23:40:42.971Z,100455.81
2022-08-20T23:43:10.718Z,100454.56
2022-08-20T23:45:40.093Z,100453.31
2022-08-20T23:48:08.415Z,100450.94
2022-08-20T23:50:36.632Z,100452.03
2022-08-20T23:53:04.848Z,100450.31
2022-08-20T23:55:32.919Z,100451.41
2022-08-20T23:58:00.024Z,100450.34
